Αναφορές METAR από Ελληνικά Αεροδρόμια

Σε αυτή τη σελίδα, μπορείτε να παρακολουθείτε τις αναφορές METAR που προέρχονται από τα κυριότερα αεροδρόμια της Ελλάδας. Το περιεχόμενο αποκωδικοποιείται, οπτικοποιείται και γίνεται κατανοητό από τον καθένα με τη χρήση του όμορφου δίγλωσσου γραφικού περιβάλλοντος του meteothes.gr!

Η αρχική κωδικοποιημένη αναφορά, συμπεριλαμβάνεται επίσης στο κάτω μέρος. Σε όποια καθεστερεί η ενημέρωση, το προειδοποιητικό μήνυμα "Μη ενημερωμένο METAR!" εμφανίζεται στο πάνω μέρος της με κόκκινα γράμματα.

Εχουν προστεθεί επίσης δύο αεροδρόμια από γειτονικές χώρες, την Οχρίδα(ΠΓΔΜ) και την Σόφια(Βουλγαρία) για να ελέγχουμε την εξέλιξη των ψυχρών εισβολών από τα Βόρεια!

LGTS - Thessaloniki/Makedonia-Elev 7m
Απόσταση από meteothes.gr: Ν 13km
Ενημερώθηκε: 21/05/2018 00:20
Μερικώς νεφελώδης
Μερικώς νεφελώδης
 Ανεμος από μεταβλητός
Ανεμος: μεταβλητός 6 km/h
Θερμοκρασία: 22°C
Σημ. Δρόσου: 15°C
Υγρασία: 65%
Βαρόμετρο: 1016 hPa
Νέφωση: Μερικώς νεφελώδης
Ορατότητα: 10 km
Λεπτομέρειες Νεφών: Διάσπαρτα Nέφη 549 m
Μερικώς νεφελώδης 762 m
2018/05/20 21:20 LGTS 202120Z VRB03KT 9999 FEW018TCU SCT025 22/15 Q1016 NOSIG
LGAV - Athens/Elef. Venizelos-Elev 94m
Απόσταση από meteothes.gr: ΝΝΑ 312km
Ενημερώθηκε: 21/05/2018 00:20
Διάσπαρτα Nέφη
Διάσπαρτα Nέφη
 Ανεμος από ΑΒΑ
Ανεμος: ΑΒΑ 6 km/h
Θερμοκρασία: 19°C
Σημ. Δρόσου: 15°C
Υγρασία: 78%
Βαρόμετρο: 1014 hPa
Νέφωση: Διάσπαρτα Nέφη
Ορατότητα: 10 km
Λεπτομέρειες Νεφών: Διάσπαρτα Nέφη 914 m
2018/05/20 21:20 LGAV 202120Z 07003KT 9999 FEW030 19/15 Q1014 NOSIG
 
LGAL - Alexandroupolis-Elev 3m
Απόσταση από meteothes.gr: Α 251km
Ενημερώθηκε: 20/05/2018 22:20
ΜΗ Ενημερωμένο METAR!
Διάσπαρτα Nέφη
Διάσπαρτα Nέφη
 Ανεμος από μεταβλητός
Ανεμος: μεταβλητός 6 km/h
Θερμοκρασία: 20°C
Σημ. Δρόσου: 16°C
Υγρασία: 78%
Βαρόμετρο: 1014 hPa
Νέφωση: Διάσπαρτα Nέφη
Ορατότητα: 10 km
Λεπτομέρειες Νεφών: Διάσπαρτα Nέφη 914 m
2018/05/20 19:20 LGAL 201920Z VRB03KT 9999 FEW030 20/16 Q1014
LGKV - Kavala/Crysoupolis-Elev 5m
Απόσταση από meteothes.gr: ΑΒΑ 144km
Ενημερώθηκε: 20/05/2018 23:20
ΜΗ Ενημερωμένο METAR!
Μερικώς νεφελώδης
Μερικώς νεφελώδης
 Ανεμος από ΒΑ
Ανεμος: ΒΑ 9 km/h
Θερμοκρασία: 20°C
Σημ. Δρόσου: 17°C
Υγρασία: 83%
Βαρόμετρο: 1016 hPa
Νέφωση: Μερικώς νεφελώδης
Ορατότητα: 10 km
Λεπτομέρειες Νεφών: Διάσπαρτα Nέφη 914 m
Μερικώς νεφελώδης 2438 m
2018/05/20 20:20 LGKV 202020Z 05005KT 9999 FEW030 SCT080 20/17 Q1016
 
LGSK - Skiathos Island-Elev 15m
Απόσταση από meteothes.gr: ΝΝΑ 168km
Ενημερώθηκε: 20/05/2018 21:50
ΜΗ Ενημερωμένο METAR!
Διάσπαρτα Nέφη
Διάσπαρτα Nέφη
 Ανεμος από άπνοια
Ανεμος: άπνοια
Θερμοκρασία: 19°C
Σημ. Δρόσου: 17°C
Υγρασία: 88%
Βαρόμετρο: 1014 hPa
Νέφωση: Διάσπαρτα Nέφη
Ορατότητα: 10 km
Λεπτομέρειες Νεφών: Διάσπαρτα Nέφη 610 m
2018/05/20 18:50 LGSK 201850Z 00000KT 9999 FEW020 19/17 Q1014
LGLM - Limnos Island-Elev 5m
Απόσταση από meteothes.gr: ΑΝΑ 210km
Ενημερώθηκε: 01/01/1970 02:00
ΜΗ Ενημερωμένο METAR!
unable to load LGLM data RC=404 Not Found
unable to load LGLM data RC=404 Not Found
 
 
LGMT - Mitilini Island-Elev 17m
Απόσταση από meteothes.gr: ΑΝΑ 358km
Ενημερώθηκε: 20/05/2018 22:50
ΜΗ Ενημερωμένο METAR!
Αίθριος
Αίθριος
 Ανεμος από μεταβλητός
Ανεμος: μεταβλητός 6 km/h
Θερμοκρασία: 24°C
Σημ. Δρόσου: 16°C
Υγρασία: 61%
Βαρόμετρο: 1014 hPa
Συνθήκες: Αίθριος
Ορατότητα: πάνω από 10 km
2018/05/20 19:50 LGMT 201950Z VRB03KT CAVOK 24/16 Q1014
LGSY - Skiros Island-Elev 15m
Απόσταση από meteothes.gr: ΝΑ 227km
Ενημερώθηκε: 20/05/2018 21:50
ΜΗ Ενημερωμένο METAR!
Διάσπαρτα Nέφη
Διάσπαρτα Nέφη
 Ανεμος από άπνοια
Ανεμος: άπνοια
Θερμοκρασία: 21°C
Σημ. Δρόσου: 17°C
Υγρασία: 78%
Βαρόμετρο: 1014 hPa
Νέφωση: Διάσπαρτα Nέφη
Ορατότητα: 10 km
Λεπτομέρειες Νεφών: Διάσπαρτα Nέφη 610 m
2018/05/20 18:50 LGSY 201850Z 00000KT 9999 FEW020 21/17 Q1014 RMK BKN080 BKN200 BLU
 
LGKZ - Kozani-Elev 628m
Απόσταση από meteothes.gr: ΔΝΔ 102km
Ενημερώθηκε: 20/05/2018 20:50
ΜΗ Ενημερωμένο METAR!
Καταιγίδα με βροχή, Συννεφιά
Καταιγίδα με βροχή, Συννεφιά
 Ανεμος από Ν
Ανεμος: Ν 13 km/h
Θερμοκρασία: 15°C
Σημ. Δρόσου: 13°C
Υγρασία: 88%
Βαρόμετρο: 1016 hPa
Συνθήκες: Thunderstorm Rain
Νέφωση: Συννεφιά
Ορατότητα: 8 km
Λεπτομέρειες Νεφών: Διάσπαρτα Nέφη 610 m
κυρίως νεφελώδης 762 m
Συννεφιά 2134 m
2018/05/20 17:50 LGKZ 201750Z 17007KT 8000 TSRA FEW020CB BKN025 OVC070 15/13 Q1016
LGIO - Ioannina-Elev 476m
Απόσταση από meteothes.gr: ΔΝΔ 209km
Ενημερώθηκε: 20/05/2018 22:20
ΜΗ Ενημερωμένο METAR!
Καταιγίδα, Μερικώς νεφελώδης
Καταιγίδα, Μερικώς νεφελώδης
 Ανεμος από μεταβλητός
Ανεμος: μεταβλητός 0 km/h
Θερμοκρασία: 18°C
Σημ. Δρόσου: 17°C
Υγρασία: 94%
Βαρόμετρο: 1014 hPa
Συνθήκες: Καταιγίδα
Νέφωση: Μερικώς νεφελώδης
Ορατότητα: 10 km
Λεπτομέρειες Νεφών: Μερικώς νεφελώδης 762 m
Μερικώς νεφελώδης 914 m
2018/05/20 19:20 LGIO 201920Z /////KT 9999 TS SCT025CB SCT030TCU 18/17 Q1014 RERA
 
LGZA - Zakinthos-Elev 3m
Απόσταση από meteothes.gr: ΝΝΔ 367km
Ενημερώθηκε: 20/05/2018 21:50
ΜΗ Ενημερωμένο METAR!
Μερικώς νεφελώδης
Μερικώς νεφελώδης
 Ανεμος από μεταβλητός
Ανεμος: μεταβλητός 6 km/h
Θερμοκρασία: 21°C
Σημ. Δρόσου: 18°C
Υγρασία: 83%
Βαρόμετρο: 1012 hPa
Νέφωση: Μερικώς νεφελώδης
Ορατότητα: 10 km
Λεπτομέρειες Νεφών: Μερικώς νεφελώδης 610 m
Μερικώς νεφελώδης 2134 m
2018/05/20 18:50 LGZA 201850Z VRB03KT 9999 SCT020 SCT070 21/18 Q1012
LGKR - Corfu Island-Elev 2m
Απόσταση από meteothes.gr: ΔΝΔ 282km
Ενημερώθηκε: 21/05/2018 00:20
Διάσπαρτα Nέφη
Διάσπαρτα Nέφη
 Ανεμος από άπνοια
Ανεμος: άπνοια
Θερμοκρασία: 22°C
Σημ. Δρόσου: 18°C
Υγρασία: 78%
Βαρόμετρο: 1012 hPa
Νέφωση: Διάσπαρτα Nέφη
Ορατότητα: 10 km
Λεπτομέρειες Νεφών: Διάσπαρτα Nέφη 1219 m
2018/05/20 21:20 LGKR 202120Z 00000KT 9999 FEW040 22/18 Q1012 NOSIG
 
LGSO - Syros Island-Elev 72m
Απόσταση από meteothes.gr: ΝΝΑ 397km
Ενημερώθηκε: 20/05/2018 21:20
ΜΗ Ενημερωμένο METAR!
Διάσπαρτα Nέφη
Διάσπαρτα Nέφη
 Ανεμος από Β
Ανεμος: Β 20 km/h
Θερμοκρασία: 22°C
Σημ. Δρόσου: 16°C
Υγρασία: 69%
Βαρόμετρο: 1013 hPa
Νέφωση: Διάσπαρτα Nέφη
Ορατότητα: 10 km
Λεπτομέρειες Νεφών: Διάσπαρτα Nέφη 914 m
2018/05/20 18:20 LGSO 201820Z 36011KT 9999 FEW030 22/16 Q1013
LGMK - Mikonos Island-Elev 123m
Απόσταση από meteothes.gr: ΝΝΑ 412km
Ενημερώθηκε: 20/05/2018 23:50
Διάσπαρτα Nέφη
Διάσπαρτα Nέφη
 Ανεμος από Β
Ανεμος: Β 26 km/h
Θερμοκρασία: 20°C
Σημ. Δρόσου: 15°C
Υγρασία: 73%
Βαρόμετρο: 1013 hPa
Νέφωση: Διάσπαρτα Nέφη
Ορατότητα: 10 km
Λεπτομέρειες Νεφών: Διάσπαρτα Nέφη 762 m
2018/05/20 20:50 LGMK 202050Z 01014KT 9999 FEW025 20/15 Q1013
 
LGSR - Santorini Island-Elev 40m
Απόσταση από meteothes.gr: ΝΝΑ 520km
Ενημερώθηκε: 21/05/2018 00:20
Διάσπαρτα Nέφη
Διάσπαρτα Nέφη
 Ανεμος από Β
Ανεμος: Β 15 km/h
Θερμοκρασία: 20°C
Σημ. Δρόσου: 18°C
Υγρασία: 88%
Βαρόμετρο: 1013 hPa
Νέφωση: Διάσπαρτα Nέφη
Ορατότητα: 10 km
Λεπτομέρειες Νεφών: Διάσπαρτα Nέφη 762 m
2018/05/20 21:20 LGSR 202120Z 35008KT 9999 FEW025 20/18 Q1013
LGKL - Kalamata-Elev 8m
Απόσταση από meteothes.gr: Ν 405km
Ενημερώθηκε: 21/05/2018 00:20
Αίθριος
Αίθριος
 Ανεμος από ΒΒΔ
Ανεμος: ΒΒΔ 15 km/h
Θερμοκρασία: 20°C
Σημ. Δρόσου: 15°C
Υγρασία: 73%
Βαρόμετρο: 1010 hPa
Συνθήκες: Αίθριος
Ορατότητα: πάνω από 10 km
2018/05/20 21:20 LGKL 202120Z 33008KT CAVOK 20/15 Q1010
 
LGIR - Iraklion/Crete-Elev 5m
Απόσταση από meteothes.gr: ΝΝΑ 622km
Ενημερώθηκε: 21/05/2018 00:20
Διάσπαρτα Nέφη
Διάσπαρτα Nέφη
 Ανεμος από Ν
Ανεμος: Ν 7 km/h
Θερμοκρασία: 20°C
Σημ. Δρόσου: 17°C
Υγρασία: 83%
Βαρόμετρο: 1011 hPa
Νέφωση: Διάσπαρτα Nέφη
Ορατότητα: 10 km
Λεπτομέρειες Νεφών: Διάσπαρτα Nέφη 610 m
2018/05/20 21:20 LGIR 202120Z 17004KT 9999 FEW020 20/17 Q1011 NOSIG
LGRP - Rhodes-Elev 5m
Απόσταση από meteothes.gr: ΝΑ 649km
Ενημερώθηκε: 21/05/2018 00:20
Διάσπαρτα Nέφη
Διάσπαρτα Nέφη
 Ανεμος από ΝΔ
Ανεμος: ΝΔ 17 km/h
Θερμοκρασία: 23°C
Σημ. Δρόσου: 17°C
Υγρασία: 69%
Βαρόμετρο: 1011 hPa
Νέφωση: Διάσπαρτα Nέφη
Ορατότητα: 10 km
Λεπτομέρειες Νεφών: Διάσπαρτα Nέφη 549 m
2018/05/20 21:20 LGRP 202120Z 23009KT 9999 FEW018 23/17 Q1011 NOSIG
 
LWOH - Ohrid/FYROM-Elev 761m
Απόσταση από meteothes.gr: ΔΒΔ 188km
Ενημερώθηκε: 20/05/2018 21:30
ΜΗ Ενημερωμένο METAR!
Nearby thunderstorm, Μερικώς νεφελώδης
Nearby thunderstorm, Μερικώς νεφελώδης
 Ανεμος από ΒΑ
Ανεμος: ΒΑ 9 km/h
Θερμοκρασία: 20°C
Σημ. Δρόσου: 9°C
Υγρασία: 49%
Βαρόμετρο: 1015 hPa
Συνθήκες: Nearby Thunderstorm
Νέφωση: Μερικώς νεφελώδης
Ορατότητα: 10 km
Λεπτομέρειες Νεφών: Μερικώς νεφελώδης 1219 m
Μερικώς νεφελώδης 1524 m
2018/05/20 18:30 LWOH 201830Z 04005KT 350V080 9999 VCTS SCT040CB SCT050 20/09 Q1015
LBSF - Sofia/Bulgaria-Elev 595m
Απόσταση από meteothes.gr: Β 227km
Ενημερώθηκε: 21/05/2018 00:30
Διάσπαρτα Nέφη
Διάσπαρτα Nέφη
 Ανεμος από ΝΑ
Ανεμος: ΝΑ 9 km/h
Θερμοκρασία: 15°C
Σημ. Δρόσου: 11°C
Υγρασία: 77%
Βαρόμετρο: 1018 hPa
Νέφωση: Διάσπαρτα Nέφη
Ορατότητα: 10 km
Λεπτομέρειες Νεφών: Διάσπαρτα Nέφη 1524 m
2018/05/20 21:30 LBSF 202130Z 13005KT 070V160 9999 FEW050 15/11 Q1018 NOSIG

(*) Μερικές αναφορές παρουσιάζουν λιγότερα στοιχεία γιατί οι αρχικές είναι ελλιπείς ή έχουν λάθος μορφοποίηση!